Time;durP1;ratioP1;P1;durP2;ratioP2;P2;SDS_P1;SDS_P2;PMS_P1;PMS_P2;Temp;Humidity;BMP_temperature;BMP_pressure;BME280_temperature;BME280_humidity;BME280_pressure;Samples;Min_cycle;Max_cycle;Signal;HPM_P1;HPM_P2
2021/08/07 00:01:42;;;;;;;3.50;1.65;;;;;;;;;;5055313;28;20033;-67
2021/08/07 00:04:08;;;;;;;3.17;1.60;;;;;;;;;;5055240;28;20536;-68
2021/08/07 00:06:34;;;;;;;2.70;1.40;;;;;;;;;;5055382;28;20395;-67
2021/08/07 00:09:00;;;;;;;3.70;1.77;;;;;;;;;;5055504;28;20032;-67
2021/08/07 00:11:26;;;;;;;2.70;1.50;;;;;;;;;;5037377;28;20132;-67
2021/08/07 00:13:52;;;;;;;3.40;1.60;;;;;;;;;;5037094;28;20118;-67
2021/08/07 00:16:18;;;;;;;3.10;1.60;;;;;;;;;;5055239;28;20035;-68
2021/08/07 00:18:44;;;;;;;3.88;1.50;;;;;;;;;;5055188;28;20028;-67
2021/08/07 00:21:10;;;;;;;3.03;1.50;;;;;;;;;;5054884;28;20415;-67
2021/08/07 00:23:36;;;;;;;2.85;1.40;;;;;;;;;;5036954;28;20033;-67
2021/08/07 00:26:03;;;;;;;3.58;1.73;;;;;;;;;;5054771;28;20101;-67
2021/08/07 00:28:29;;;;;;;3.08;1.60;;;;;;;;;;5054774;28;20029;-67
2021/08/07 00:30:55;;;;;;;3.13;1.60;;;;;;;;;;5036978;28;20025;-67
2021/08/07 00:33:21;;;;;;;4.65;1.50;;;;;;;;;;5054993;28;20072;-67
2021/08/07 00:35:47;;;;;;;2.85;1.50;;;;;;;;;;5054720;28;20490;-68
2021/08/07 00:38:13;;;;;;;3.95;1.63;;;;;;;;;;5036973;28;20036;-67
2021/08/07 00:40:39;;;;;;;3.42;1.60;;;;;;;;;;5054678;28;20500;-67
2021/08/07 00:43:07;;;;;;;3.78;1.60;;;;;;;;;;5054680;28;20056;-67
2021/08/07 00:45:33;;;;;;;5.05;1.50;;;;;;;;;;5054711;28;20501;-68
2021/08/07 00:47:59;;;;;;;4.05;1.40;;;;;;;;;;5054659;28;20438;-67
2021/08/07 00:50:25;;;;;;;3.15;1.38;;;;;;;;;;5054594;28;20048;-68
2021/08/07 00:52:51;;;;;;;2.88;1.50;;;;;;;;;;5054607;28;20078;-68
2021/08/07 00:55:17;;;;;;;3.80;1.10;;;;;;;;;;5054438;28;20021;-67
2021/08/07 00:57:44;;;;;;;2.85;1.40;;;;;;;;;;5054084;28;20545;-68
2021/08/07 01:00:10;;;;;;;3.80;1.48;;;;;;;;;;5036550;28;20064;-68
2021/08/07 01:02:36;;;;;;;4.03;1.42;;;;;;;;;;5054184;28;20037;-67
2021/08/07 01:05:05;;;;;;;3.95;1.50;;;;;;;;;;5036447;28;20025;-67
2021/08/07 01:07:36;;;;;;;2.83;1.52;;;;;;;;;;5054212;28;20021;-67
2021/08/07 01:10:10;;;;;;;3.90;1.50;;;;;;;;;;5053092;28;20021;-69
2021/08/07 01:12:41;;;;;;;3.47;1.63;;;;;;;;;;5054028;28;20434;-68
2021/08/07 01:15:08;;;;;;;2.45;1.25;;;;;;;;;;5053854;28;20087;-67
2021/08/07 01:17:35;;;;;;;2.70;1.35;;;;;;;;;;5054067;28;20028;-67
2021/08/07 01:20:05;;;;;;;2.97;1.27;;;;;;;;;;5054057;28;20264;-67
2021/08/07 01:22:35;;;;;;;2.63;1.33;;;;;;;;;;5052618;28;20388;-67
2021/08/07 01:25:07;;;;;;;2.75;1.50;;;;;;;;;;5054128;28;20013;-67
2021/08/07 01:27:37;;;;;;;3.33;1.50;;;;;;;;;;5053978;28;20617;-68
2021/08/07 01:30:05;;;;;;;3.38;1.60;;;;;;;;;;5053832;28;20032;-68
2021/08/07 01:32:33;;;;;;;2.90;1.35;;;;;;;;;;5053865;28;20104;-67
2021/08/07 01:35:00;;;;;;;3.40;1.48;;;;;;;;;;5053558;28;20074;-67
2021/08/07 01:37:26;;;;;;;3.08;1.60;;;;;;;;;;5053704;28;20452;-68
2021/08/07 01:39:56;;;;;;;2.35;1.30;;;;;;;;;;5053716;28;20047;-68
2021/08/07 01:42:23;;;;;;;4.70;1.40;;;;;;;;;;5052333;28;20029;-68
2021/08/07 01:44:49;;;;;;;2.28;1.20;;;;;;;;;;5052246;28;20025;-67
2021/08/07 01:47:33;;;;;;;3.00;1.50;;;;;;;;;;5053518;28;20021;-68
2021/08/07 01:50:07;;;;;;;3.05;1.42;;;;;;;;;;5053424;28;20021;-68
2021/08/07 01:52:38;;;;;;;3.90;1.70;;;;;;;;;;5053577;28;20056;-68
2021/08/07 01:55:09;;;;;;;2.90;1.40;;;;;;;;;;5052013;28;20112;-67
2021/08/07 01:57:38;;;;;;;3.45;1.40;;;;;;;;;;5053637;28;20032;-67
2021/08/07 02:00:05;;;;;;;2.95;1.40;;;;;;;;;;5053210;28;20021;-67
2021/08/07 02:02:31;;;;;;;2.55;1.40;;;;;;;;;;5053003;28;20040;-67
2021/08/07 02:05:01;;;;;;;2.70;1.30;;;;;;;;;;5053077;28;20029;-68
2021/08/07 02:07:27;;;;;;;3.55;1.40;;;;;;;;;;5053032;28;20488;-68
2021/08/07 02:09:54;;;;;;;2.70;1.50;;;;;;;;;;5053263;28;20032;-67
2021/08/07 02:12:21;;;;;;;2.63;1.40;;;;;;;;;;5053129;28;20079;-67
2021/08/07 02:14:48;;;;;;;2.50;1.42;;;;;;;;;;5052684;28;20045;-68
2021/08/07 02:17:15;;;;;;;2.92;1.27;;;;;;;;;;5053369;28;20027;-67
2021/08/07 02:19:41;;;;;;;3.42;1.38;;;;;;;;;;5052797;28;20032;-67
2021/08/07 02:22:08;;;;;;;2.92;1.30;;;;;;;;;;5051064;28;20128;-67
2021/08/07 02:24:35;;;;;;;2.80;1.40;;;;;;;;;;5051524;28;20117;-67
2021/08/07 02:27:01;;;;;;;4.38;1.75;;;;;;;;;;5052773;28;20079;-67
2021/08/07 02:29:28;;;;;;;2.65;1.42;;;;;;;;;;5052763;28;20035;-68
2021/08/07 02:31:55;;;;;;;4.20;1.40;;;;;;;;;;5052962;28;20036;-67
2021/08/07 02:34:21;;;;;;;2.92;1.42;;;;;;;;;;5052478;28;20095;-68
2021/08/07 02:36:48;;;;;;;3.17;1.50;;;;;;;;;;5052724;28;20212;-67
2021/08/07 02:39:14;;;;;;;3.03;1.50;;;;;;;;;;5051283;28;20021;-67
2021/08/07 02:41:41;;;;;;;3.30;1.30;;;;;;;;;;5052246;28;20075;-67
2021/08/07 02:44:07;;;;;;;3.28;1.40;;;;;;;;;;5051128;28;20490;-68
2021/08/07 02:46:33;;;;;;;4.35;1.48;;;;;;;;;;5051156;28;20111;-68
2021/08/07 02:48:59;;;;;;;3.00;1.42;;;;;;;;;;5052516;28;20033;-68
2021/08/07 02:51:26;;;;;;;2.40;1.30;;;;;;;;;;5051025;28;20055;-67
2021/08/07 02:53:52;;;;;;;2.22;1.30;;;;;;;;;;5052287;28;20013;-67
2021/08/07 02:56:19;;;;;;;3.25;1.45;;;;;;;;;;5052115;28;20480;-68
2021/08/07 02:58:45;;;;;;;3.72;1.50;;;;;;;;;;5051096;28;20472;-67
2021/08/07 03:01:11;;;;;;;3.03;1.50;;;;;;;;;;5050737;28;20131;-67
2021/08/07 03:03:37;;;;;;;3.35;1.35;;;;;;;;;;5052214;28;20029;-67
2021/08/07 03:06:03;;;;;;;3.10;1.60;;;;;;;;;;5052299;28;20025;-68
2021/08/07 03:08:29;;;;;;;2.40;1.20;;;;;;;;;;5052130;28;20021;-67
2021/08/07 03:10:56;;;;;;;2.97;1.30;;;;;;;;;;5051691;28;20017;-68
2021/08/07 03:13:22;;;;;;;4.30;1.70;;;;;;;;;;5051785;28;20029;-68
2021/08/07 03:15:48;;;;;;;3.45;1.50;;;;;;;;;;5052062;28;20029;-68
2021/08/07 03:18:14;;;;;;;2.95;1.40;;;;;;;;;;5052076;28;20032;-67
2021/08/07 03:20:40;;;;;;;2.90;1.55;;;;;;;;;;5051794;28;20044;-67
2021/08/07 03:23:08;;;;;;;2.63;1.35;;;;;;;;;;5051852;28;20029;-67
2021/08/07 03:25:34;;;;;;;3.35;1.40;;;;;;;;;;5051834;28;20104;-67
2021/08/07 03:28:01;;;;;;;3.90;1.40;;;;;;;;;;5052064;28;20027;-68
2021/08/07 03:30:28;;;;;;;2.28;1.08;;;;;;;;;;5052293;28;20013;-67
2021/08/07 03:32:54;;;;;;;3.47;1.63;;;;;;;;;;5050741;28;20106;-68
2021/08/07 03:35:20;;;;;;;3.40;1.70;;;;;;;;;;5054702;28;20025;-67
2021/08/07 03:37:47;;;;;;;2.40;1.30;;;;;;;;;;5054692;28;20543;-68
2021/08/07 03:40:14;;;;;;;5.22;1.70;;;;;;;;;;5055890;28;20033;-68
2021/08/07 03:42:41;;;;;;;2.58;1.33;;;;;;;;;;5054543;28;20440;-67
2021/08/07 03:45:08;;;;;;;2.28;1.23;;;;;;;;;;5055978;28;20067;-67
2021/08/07 03:47:43;;;;;;;3.45;1.60;;;;;;;;;;5055855;28;20029;-67
2021/08/07 03:50:09;;;;;;;3.95;1.30;;;;;;;;;;5055692;28;20092;-67
2021/08/07 03:52:35;;;;;;;2.97;1.65;;;;;;;;;;5055564;28;20048;-68
2021/08/07 03:55:01;;;;;;;3.00;1.60;;;;;;;;;;5055978;28;20028;-68
2021/08/07 03:57:27;;;;;;;3.28;1.38;;;;;;;;;;5055747;28;20020;-67
2021/08/07 03:59:53;;;;;;;2.67;1.42;;;;;;;;;;5055484;28;20029;-67
2021/08/07 04:02:19;;;;;;;4.07;1.50;;;;;;;;;;5054261;28;20040;-68
2021/08/07 04:04:45;;;;;;;3.35;1.73;;;;;;;;;;5055461;28;20094;-67
2021/08/07 04:07:11;;;;;;;4.32;1.38;;;;;;;;;;5055361;28;20083;-68
2021/08/07 04:09:37;;;;;;;3.13;1.48;;;;;;;;;;5055584;28;20025;-67
2021/08/07 04:12:03;;;;;;;2.47;1.30;;;;;;;;;;5055321;28;20029;-68
2021/08/07 04:14:29;;;;;;;4.07;1.88;;;;;;;;;;5055216;28;20064;-68
2021/08/07 04:16:55;;;;;;;2.65;1.40;;;;;;;;;;5055485;28;20033;-67
2021/08/07 04:19:23;;;;;;;2.50;1.50;;;;;;;;;;5054208;28;20049;-67
2021/08/07 04:21:49;;;;;;;2.95;1.48;;;;;;;;;;5054944;28;20117;-68
2021/08/07 04:24:15;;;;;;;3.78;1.42;;;;;;;;;;5055056;28;20021;-67
2021/08/07 04:26:41;;;;;;;3.15;1.60;;;;;;;;;;5055164;28;20021;-68
2021/08/07 04:29:07;;;;;;;4.07;1.60;;;;;;;;;;5054959;28;20021;-67
2021/08/07 04:31:33;;;;;;;3.80;1.50;;;;;;;;;;5055056;28;20045;-67
2021/08/07 04:33:59;;;;;;;3.95;1.48;;;;;;;;;;5054829;28;20029;-67
2021/08/07 04:36:25;;;;;;;3.80;1.60;;;;;;;;;;5054805;28;20086;-67
2021/08/07 04:38:51;;;;;;;2.92;1.50;;;;;;;;;;5054793;28;20053;-67
2021/08/07 04:41:17;;;;;;;3.72;1.55;;;;;;;;;;5054805;28;20033;-67
2021/08/07 04:43:43;;;;;;;3.50;1.67;;;;;;;;;;5053711;28;20430;-67
2021/08/07 04:46:09;;;;;;;4.15;1.80;;;;;;;;;;5054735;28;20045;-67
2021/08/07 04:48:35;;;;;;;3.47;1.40;;;;;;;;;;5053347;28;20017;-67
2021/08/07 04:51:01;;;;;;;2.67;1.45;;;;;;;;;;5054423;28;20013;-67
2021/08/07 04:53:28;;;;;;;3.80;1.50;;;;;;;;;;5054477;28;20029;-67
2021/08/07 04:55:54;;;;;;;3.60;1.50;;;;;;;;;;5053693;28;20416;-67
2021/08/07 04:58:20;;;;;;;2.65;1.30;;;;;;;;;;5053312;28;20025;-68
2021/08/07 05:00:46;;;;;;;3.53;1.60;;;;;;;;;;5054555;28;20044;-68
2021/08/07 05:03:12;;;;;;;3.00;1.65;;;;;;;;;;5054383;28;20025;-68
2021/08/07 05:05:38;;;;;;;5.10;1.77;;;;;;;;;;5054122;28;20028;-68
2021/08/07 05:08:04;;;;;;;4.85;1.80;;;;;;;;;;5054139;28;20036;-69
2021/08/07 05:10:30;;;;;;;3.70;1.80;;;;;;;;;;5054031;28;20025;-67
2021/08/07 05:12:56;;;;;;;3.72;1.45;;;;;;;;;;5054143;28;20096;-67
2021/08/07 05:15:23;;;;;;;3.38;1.58;;;;;;;;;;5052894;28;20053;-68
2021/08/07 05:17:49;;;;;;;2.95;1.50;;;;;;;;;;5054221;28;20025;-67
2021/08/07 05:20:15;;;;;;;3.40;1.63;;;;;;;;;;5054344;28;20376;-68
2021/08/07 05:22:41;;;;;;;3.17;1.58;;;;;;;;;;5053934;28;20028;-68
2021/08/07 05:25:08;;;;;;;4.95;1.60;;;;;;;;;;5053824;28;20033;-68
2021/08/07 05:27:34;;;;;;;3.90;1.80;;;;;;;;;;5053816;28;20021;-68
2021/08/07 05:30:00;;;;;;;6.57;1.67;;;;;;;;;;5052565;28;20025;-68
2021/08/07 05:32:26;;;;;;;4.82;1.80;;;;;;;;;;5053828;28;20032;-67
2021/08/07 05:34:52;;;;;;;5.68;2.10;;;;;;;;;;5053881;28;20053;-68
2021/08/07 05:37:18;;;;;;;2.88;1.60;;;;;;;;;;5054006;28;20025;-69
2021/08/07 05:39:44;;;;;;;3.88;2.00;;;;;;;;;;5053865;28;20410;-68
2021/08/07 05:42:10;;;;;;;4.93;2.35;;;;;;;;;;5053664;28;20427;-67
2021/08/07 05:44:36;;;;;;;3.58;1.77;;;;;;;;;;5053688;28;20047;-67
2021/08/07 05:47:03;;;;;;;5.10;1.80;;;;;;;;;;5053632;28;20025;-68
2021/08/07 05:49:29;;;;;;;8.23;1.85;;;;;;;;;;5053609;28;20514;-68
2021/08/07 05:51:55;;;;;;;3.75;2.00;;;;;;;;;;5053427;28;20061;-68
2021/08/07 05:54:21;;;;;;;3.83;1.67;;;;;;;;;;5053397;28;20025;-67
2021/08/07 05:56:47;;;;;;;3.05;1.52;;;;;;;;;;5051387;28;20075;-68
2021/08/07 05:59:13;;;;;;;4.32;1.70;;;;;;;;;;5051995;28;20108;-68
2021/08/07 06:01:39;;;;;;;3.90;2.03;;;;;;;;;;5052992;28;20029;-68
2021/08/07 06:04:05;;;;;;;5.15;1.83;;;;;;;;;;5053062;28;20052;-68
2021/08/07 06:06:31;;;;;;;3.28;1.52;;;;;;;;;;5053309;28;20029;-68
2021/08/07 06:08:58;;;;;;;3.53;1.83;;;;;;;;;;5053199;28;20392;-67
2021/08/07 06:11:24;;;;;;;3.10;1.65;;;;;;;;;;5052699;28;20396;-68
2021/08/07 06:13:50;;;;;;;4.82;1.90;;;;;;;;;;5052573;28;20418;-67
2021/08/07 06:16:16;;;;;;;3.85;1.90;;;;;;;;;;5052866;28;20163;-67
2021/08/07 06:18:42;;;;;;;4.28;1.98;;;;;;;;;;5052832;28;20021;-68
2021/08/07 06:21:08;;;;;;;4.38;1.90;;;;;;;;;;5051437;28;20124;-67
2021/08/07 06:23:34;;;;;;;4.22;2.03;;;;;;;;;;5052679;28;20454;-69
2021/08/07 06:26:00;;;;;;;4.40;1.73;;;;;;;;;;5051570;28;20341;-67
2021/08/07 06:28:26;;;;;;;6.25;2.42;;;;;;;;;;5052709;28;20122;-67
2021/08/07 06:30:52;;;;;;;3.72;1.75;;;;;;;;;;5052805;28;20032;-67
2021/08/07 06:33:18;;;;;;;4.15;1.88;;;;;;;;;;5052774;28;20028;-67
2021/08/07 06:35:44;;;;;;;4.43;2.00;;;;;;;;;;5052787;28;20053;-67
2021/08/07 06:38:10;;;;;;;5.18;2.08;;;;;;;;;;5052628;28;20025;-67
2021/08/07 06:40:37;;;;;;;6.00;2.20;;;;;;;;;;5052637;28;20044;-67
2021/08/07 06:43:03;;;;;;;7.03;2.33;;;;;;;;;;5052443;28;20031;-68
2021/08/07 06:45:29;;;;;;;3.60;1.77;;;;;;;;;;5051213;28;20021;-67
2021/08/07 06:47:55;;;;;;;4.25;2.08;;;;;;;;;;5052505;28;20112;-67
2021/08/07 06:50:22;;;;;;;5.88;1.77;;;;;;;;;;5051033;28;20021;-67
2021/08/07 06:52:48;;;;;;;3.97;1.90;;;;;;;;;;5051017;28;20025;-68
2021/08/07 06:55:14;;;;;;;4.63;1.92;;;;;;;;;;5050976;28;20025;-67
2021/08/07 06:57:41;;;;;;;4.40;1.85;;;;;;;;;;5052301;28;20468;-68
2021/08/07 07:00:09;;;;;;;5.00;1.80;;;;;;;;;;5052203;28;20484;-68
2021/08/07 07:02:36;;;;;;;6.05;1.88;;;;;;;;;;5052097;28;20028;-68
2021/08/07 07:05:02;;;;;;;3.78;1.75;;;;;;;;;;5051998;28;20021;-68
2021/08/07 07:07:28;;;;;;;3.17;1.67;;;;;;;;;;5051631;28;20170;-67
2021/08/07 07:09:54;;;;;;;3.55;1.65;;;;;;;;;;5051904;28;20409;-68
2021/08/07 07:12:20;;;;;;;5.07;1.80;;;;;;;;;;5052227;28;20025;-67
2021/08/07 07:14:46;;;;;;;4.03;1.80;;;;;;;;;;5051889;28;20511;-68
2021/08/07 07:17:13;;;;;;;3.38;1.48;;;;;;;;;;5052058;28;20029;-68
2021/08/07 07:19:39;;;;;;;3.80;1.50;;;;;;;;;;5050688;28;20438;-67
2021/08/07 07:22:05;;;;;;;3.65;1.65;;;;;;;;;;5051918;28;20036;-68
2021/08/07 07:24:32;;;;;;;2.97;1.50;;;;;;;;;;5051770;28;20508;-68
2021/08/07 07:26:58;;;;;;;3.70;1.50;;;;;;;;;;5050504;28;20079;-68
2021/08/07 07:29:24;;;;;;;3.60;1.63;;;;;;;;;;5051920;28;20488;-68
2021/08/07 07:31:50;;;;;;;3.45;1.83;;;;;;;;;;5050570;28;20029;-68
2021/08/07 07:34:16;;;;;;;2.72;1.30;;;;;;;;;;5051849;28;20484;-68
2021/08/07 07:36:42;;;;;;;3.75;1.30;;;;;;;;;;5051885;28;20052;-67
2021/08/07 07:39:08;;;;;;;3.20;1.33;;;;;;;;;;5051880;28;20025;-68
2021/08/07 07:41:34;;;;;;;2.97;1.40;;;;;;;;;;5051433;28;20082;-68
2021/08/07 07:44:00;;;;;;;3.90;1.45;;;;;;;;;;5050504;28;20029;-68
2021/08/07 07:46:26;;;;;;;2.53;1.40;;;;;;;;;;5051638;28;20599;-68
2021/08/07 07:48:52;;;;;;;4.13;1.42;;;;;;;;;;5051632;28;20365;-67
2021/08/07 07:51:18;;;;;;;2.80;1.23;;;;;;;;;;5051908;28;20040;-68
2021/08/07 07:53:44;;;;;;;3.85;1.17;;;;;;;;;;5051543;28;20028;-68
2021/08/07 07:56:10;;;;;;;2.97;1.33;;;;;;;;;;5050564;28;20053;-68
2021/08/07 07:58:36;;;;;;;2.63;1.27;;;;;;;;;;5051687;28;20025;-68
2021/08/07 08:01:02;;;;;;;1.92;1.10;;;;;;;;;;5050256;28;20036;-67
2021/08/07 08:03:28;;;;;;;3.92;1.65;;;;;;;;;;5051673;28;20028;-68
2021/08/07 08:05:55;;;;;;;2.40;1.25;;;;;;;;;;5051450;28;20495;-69
2021/08/07 08:08:21;;;;;;;3.00;1.27;;;;;;;;;;5051280;28;20104;-68
2021/08/07 08:10:47;;;;;;;3.40;1.27;;;;;;;;;;5051463;28;20025;-68
2021/08/07 08:13:13;;;;;;;2.13;1.20;;;;;;;;;;5051580;28;20372;-68
2021/08/07 08:15:40;;;;;;;3.42;1.40;;;;;;;;;;5051275;28;20037;-67
2021/08/07 08:18:07;;;;;;;3.60;1.30;;;;;;;;;;5050008;28;20021;-69
2021/08/07 08:20:34;;;;;;;2.83;1.25;;;;;;;;;;5052809;28;20028;-69
2021/08/07 08:23:00;;;;;;;2.75;1.20;;;;;;;;;;5054986;28;20067;-68
2021/08/07 08:25:28;;;;;;;2.72;1.30;;;;;;;;;;5055276;28;20021;-68
2021/08/07 08:27:55;;;;;;;2.75;1.40;;;;;;;;;;5053850;28;20060;-68
2021/08/07 08:30:21;;;;;;;2.97;1.20;;;;;;;;;;5055190;28;20028;-68
2021/08/07 08:32:47;;;;;;;3.72;1.20;;;;;;;;;;5055305;28;20025;-68
2021/08/07 08:35:14;;;;;;;2.90;1.40;;;;;;;;;;5053959;28;20123;-68
2021/08/07 08:37:40;;;;;;;2.90;1.20;;;;;;;;;;5055059;28;20136;-68
2021/08/07 08:40:07;;;;;;;2.83;1.10;;;;;;;;;;5054972;28;20060;-68
2021/08/07 08:42:33;;;;;;;3.22;1.45;;;;;;;;;;5054699;28;20037;-68
2021/08/07 08:44:59;;;;;;;4.03;1.60;;;;;;;;;;5054823;28;20017;-68
2021/08/07 08:47:26;;;;;;;1.70;1.00;;;;;;;;;;5054658;28;20059;-68
2021/08/07 08:49:52;;;;;;;4.18;1.30;;;;;;;;;;5054689;28;20017;-68
2021/08/07 08:52:22;;;;;;;2.25;1.10;;;;;;;;;;5054705;28;20476;-69
2021/08/07 08:54:49;;;;;;;2.35;1.23;;;;;;;;;;5054553;28;20040;-68
2021/08/07 08:57:15;;;;;;;1.65;0.98;;;;;;;;;;5054361;28;20025;-68
2021/08/07 08:59:42;;;;;;;3.08;1.45;;;;;;;;;;5054454;28;20013;-68
2021/08/07 09:02:08;;;;;;;2.53;1.00;;;;;;;;;;5054536;28;20025;-68
2021/08/07 09:04:34;;;;;;;3.97;1.25;;;;;;;;;;5054140;28;20059;-69
2021/08/07 09:07:01;;;;;;;2.30;1.10;;;;;;;;;;5054106;28;20036;-68
2021/08/07 09:09:40;;;;;;;2.70;1.20;;;;;;;;;;5054320;28;20021;-68
2021/08/07 09:12:07;;;;;;;1.80;1.02;;;;;;;;;;5052993;28;20063;-68
2021/08/07 09:14:35;;;;;;;1.85;1.05;;;;;;;;;;5054011;28;20048;-68
2021/08/07 09:17:01;;;;;;;3.22;1.23;;;;;;;;;;5054202;28;20021;-68
2021/08/07 09:19:28;;;;;;;4.07;1.20;;;;;;;;;;5052699;28;20365;-68
2021/08/07 09:22:10;;;;;;;2.05;1.02;;;;;;;;;;5053761;28;20186;-68
2021/08/07 09:24:36;;;;;;;;;;;;;;;;;;5054482;28;20193;-68
2021/08/07 09:27:05;;;;;;;3.05;1.30;;;;;;;;;;5052994;28;20352;-67
2021/08/07 09:29:40;;;;;;;2.13;1.13;;;;;;;;;;5054119;28;20029;-68
2021/08/07 09:32:07;;;;;;;2.13;1.05;;;;;;;;;;5053017;28;20452;-68
2021/08/07 09:34:33;;;;;;;2.75;1.10;;;;;;;;;;5053842;28;20152;-68
2021/08/07 09:36:59;;;;;;;2.72;1.20;;;;;;;;;;5052525;28;20052;-68
2021/08/07 09:39:38;;;;;;;1.83;0.90;;;;;;;;;;5053780;28;20491;-68
2021/08/07 09:42:04;;;;;;;3.58;1.20;;;;;;;;;;5052306;28;20044;-68
2021/08/07 09:44:30;;;;;;;2.63;1.20;;;;;;;;;;5053474;28;20028;-68
2021/08/07 09:47:04;;;;;;;2.97;1.25;;;;;;;;;;5053621;28;20023;-68
2021/08/07 09:49:37;;;;;;;2.08;0.82;;;;;;;;;;5053626;28;20031;-68
2021/08/07 09:52:04;;;;;;;2.35;1.00;;;;;;;;;;5053613;28;20036;-68
2021/08/07 09:54:40;;;;;;;2.70;1.10;;;;;;;;;;5053638;28;20018;-67
2021/08/07 09:57:06;;;;;;;3.03;1.17;;;;;;;;;;5053166;28;20035;-69
2021/08/07 09:59:35;;;;;;;2.40;1.05;;;;;;;;;;5053516;28;20376;-67
2021/08/07 10:02:18;;;;;;;2.30;1.05;;;;;;;;;;5053331;28;20091;-68
2021/08/07 10:04:44;;;;;;;4.43;0.90;;;;;;;;;;5053217;28;20086;-69
2021/08/07 10:07:10;;;;;;;2.83;0.93;;;;;;;;;;5053094;28;20017;-69
2021/08/07 10:09:37;;;;;;;2.17;1.08;;;;;;;;;;5053098;28;20330;-68
2021/08/07 10:12:03;;;;;;;4.25;1.40;;;;;;;;;;5053248;28;20025;-67
2021/08/07 10:14:29;;;;;;;2.45;1.20;;;;;;;;;;5052686;28;20045;-68
2021/08/07 10:16:56;;;;;;;2.42;1.20;;;;;;;;;;5053098;28;20047;-68
2021/08/07 10:19:22;;;;;;;2.20;1.00;;;;;;;;;;5052946;28;20029;-68
2021/08/07 10:21:52;;;;;;;2.22;1.00;;;;;;;;;;5052715;28;20029;-68
2021/08/07 10:24:19;;;;;;;2.53;1.00;;;;;;;;;;5052605;28;20072;-68
2021/08/07 10:26:48;;;;;;;3.90;1.08;;;;;;;;;;5052754;28;20499;-68
2021/08/07 10:29:17;;;;;;;4.20;1.15;;;;;;;;;;5052917;28;20021;-69
2021/08/07 10:31:45;;;;;;;1.75;0.93;;;;;;;;;;5053092;28;20028;-68
2021/08/07 10:34:11;;;;;;;2.22;1.10;;;;;;;;;;5052566;28;20021;-68
2021/08/07 10:36:38;;;;;;;1.95;0.80;;;;;;;;;;5051484;28;20053;-68
2021/08/07 10:39:06;;;;;;;8.20;1.55;;;;;;;;;;5052546;28;20025;-68
2021/08/07 10:41:33;;;;;;;2.90;1.30;;;;;;;;;;5052509;28;20029;-68
2021/08/07 10:44:01;;;;;;;4.50;1.45;;;;;;;;;;5052381;28;20028;-68
2021/08/07 10:46:27;;;;;;;3.15;1.38;;;;;;;;;;5052584;28;20049;-68
2021/08/07 10:48:53;;;;;;;2.50;1.05;;;;;;;;;;5052522;28;20036;-68
2021/08/07 10:51:19;;;;;;;6.43;1.60;;;;;;;;;;5052318;28;20021;-68
2021/08/07 10:53:49;;;;;;;2.83;1.38;;;;;;;;;;5052447;28;20013;-67
2021/08/07 10:56:27;;;;;;;2.90;1.20;;;;;;;;;;5051189;28;20055;-68
2021/08/07 10:58:54;;;;;;;5.45;1.30;;;;;;;;;;5052156;28;20029;-68
2021/08/07 11:01:20;;;;;;;2.58;1.48;;;;;;;;;;5051850;28;20024;-68
2021/08/07 11:04:09;;;;;;;3.08;1.33;;;;;;;;;;5051988;28;20504;-68
2021/08/07 11:06:38;;;;;;;5.65;1.48;;;;;;;;;;5028982;28;20041;-68
2021/08/07 11:09:17;;;;;;;3.00;1.30;;;;;;;;;;5050860;28;20025;-68
2021/08/07 11:11:43;;;;;;;3.42;1.10;;;;;;;;;;5052038;28;20028;-68
2021/08/07 11:14:24;;;;;;;2.95;1.10;;;;;;;;;;5050376;28;20151;-68
2021/08/07 11:17:05;;;;;;;2.97;1.40;;;;;;;;;;5050835;28;20494;-68
2021/08/07 11:19:48;;;;;;;2.70;1.23;;;;;;;;;;5052295;28;20082;-68
2021/08/07 11:22:15;;;;;;;2.33;0.93;;;;;;;;;;5051831;28;20029;-68
2021/08/07 11:24:43;;;;;;;2.88;1.08;;;;;;;;;;5051839;28;20132;-68
2021/08/07 11:27:12;;;;;;;2.35;1.00;;;;;;;;;;5051991;28;20215;-68
2021/08/07 11:29:57;;;;;;;3.65;0.93;;;;;;;;;;5051815;28;20515;-69
2021/08/07 11:32:24;;;;;;;2.63;1.10;;;;;;;;;;5051918;28;20575;-68
2021/08/07 11:34:50;;;;;;;5.15;1.20;;;;;;;;;;5051675;28;20021;-68
2021/08/07 11:37:19;;;;;;;2.10;0.90;;;;;;;;;;5051784;28;20391;-68
2021/08/07 11:40:04;;;;;;;2.08;0.95;;;;;;;;;;5052117;28;20017;-68
2021/08/07 11:42:43;;;;;;;2.35;0.90;;;;;;;;;;5051568;28;20040;-68
2021/08/07 11:45:10;;;;;;;2.33;0.80;;;;;;;;;;5052039;28;20044;-68
2021/08/07 11:47:50;;;;;;;2.13;1.00;;;;;;;;;;5051854;28;20382;-67
2021/08/07 11:50:16;;;;;;;1.98;0.95;;;;;;;;;;5051706;28;20126;-68
2021/08/07 11:52:42;;;;;;;1.98;0.80;;;;;;;;;;5051477;28;20025;-68
2021/08/07 11:55:09;;;;;;;3.22;1.02;;;;;;;;;;5053734;28;20021;-68
2021/08/07 11:57:35;;;;;;;2.22;0.98;;;;;;;;;;5055564;28;20029;-68
2021/08/07 12:00:20;;;;;;;2.78;1.10;;;;;;;;;;5055490;28;20410;-68
2021/08/07 12:02:59;;;;;;;1.65;0.80;;;;;;;;;;5054133;28;20044;-67
2021/08/07 12:05:25;;;;;;;2.05;0.77;;;;;;;;;;5055493;28;20071;-68
2021/08/07 12:07:58;;;;;;;1.95;0.82;;;;;;;;;;5055551;28;20027;-68
2021/08/07 12:10:24;;;;;;;1.30;0.70;;;;;;;;;;5054258;28;20100;-68
2021/08/07 12:12:50;;;;;;;2.15;0.70;;;;;;;;;;5054213;28;20108;-68
2021/08/07 12:15:16;;;;;;;1.98;0.82;;;;;;;;;;5055538;28;20041;-67
2021/08/07 12:17:46;;;;;;;3.45;0.73;;;;;;;;;;5055418;28;20380;-67
2021/08/07 12:20:12;;;;;;;1.80;0.85;;;;;;;;;;5055059;28;20923;-68
2021/08/07 12:22:58;;;;;;;1.77;0.77;;;;;;;;;;5055172;28;20122;-68
2021/08/07 12:25:24;;;;;;;1.58;0.80;;;;;;;;;;5054963;28;20102;-68
2021/08/07 12:28:17;;;;;;;1.35;0.70;;;;;;;;;;5054879;28;20025;-67
2021/08/07 12:31:00;;;;;;;1.10;0.70;;;;;;;;;;5055178;28;20380;-68
2021/08/07 12:33:26;;;;;;;1.70;0.88;;;;;;;;;;5054987;28;20029;-68
2021/08/07 12:35:53;;;;;;;1.17;0.68;;;;;;;;;;5054770;28;20468;-68
2021/08/07 12:38:21;;;;;;;1.15;0.60;;;;;;;;;;5054935;28;20055;-68
2021/08/07 12:40:48;;;;;;;0.98;0.77;;;;;;;;;;5054571;28;20031;-68
2021/08/07 12:43:15;;;;;;;0.80;0.60;;;;;;;;;;5054517;28;20043;-68
2021/08/07 12:45:41;;;;;;;1.70;0.80;;;;;;;;;;5054679;28;20025;-68
2021/08/07 12:48:07;;;;;;;1.25;0.60;;;;;;;;;;5054674;28;20029;-68
2021/08/07 12:50:33;;;;;;;1.23;0.60;;;;;;;;;;5054586;28;20029;-68
2021/08/07 12:53:00;;;;;;;1.65;0.70;;;;;;;;;;5054381;28;20060;-68
2021/08/07 12:55:34;;;;;;;1.67;0.70;;;;;;;;;;5053341;28;20411;-68
2021/08/07 12:58:13;;;;;;;1.42;0.82;;;;;;;;;;5054485;28;20033;-67
2021/08/07 13:00:39;;;;;;;2.25;0.80;;;;;;;;;;5054478;28;20025;-67
2021/08/07 13:03:06;;;;;;;1.10;0.70;;;;;;;;;;5054389;28;20095;-68
2021/08/07 13:05:33;;;;;;;1.55;0.73;;;;;;;;;;5053467;28;20544;-68
2021/08/07 13:07:59;;;;;;;1.52;0.88;;;;;;;;;;5053887;28;20021;-68
2021/08/07 13:10:32;;;;;;;1.98;0.93;;;;;;;;;;5054428;28;20046;-68
2021/08/07 13:12:58;;;;;;;1.48;0.82;;;;;;;;;;5054089;28;20503;-68
2021/08/07 13:15:25;;;;;;;3.10;0.65;;;;;;;;;;5053982;28;20286;-68
2021/08/07 13:17:56;;;;;;;1.55;0.70;;;;;;;;;;5054103;28;20369;-68
2021/08/07 13:20:41;;;;;;;1.15;0.65;;;;;;;;;;5053962;28;20025;-68
2021/08/07 13:23:08;;;;;;;2.00;0.80;;;;;;;;;;5053750;28;20036;-68
2021/08/07 13:25:34;;;;;;;2.17;0.85;;;;;;;;;;5054010;28;20032;-68
2021/08/07 13:28:19;;;;;;;1.88;0.70;;;;;;;;;;5052827;28;20091;-68
2021/08/07 13:30:52;;;;;;;1.27;0.70;;;;;;;;;;5053959;28;20032;-68
2021/08/07 13:33:34;;;;;;;1.65;0.68;;;;;;;;;;5053805;28;20472;-68
2021/08/07 13:36:00;;;;;;;;;;;;;;;;;;5054375;28;20037;-68
2021/08/07 13:38:27;;;;;;;1.38;0.70;;;;;;;;;;5053806;28;20149;-68
2021/08/07 13:41:13;;;;;;;1.27;0.60;;;;;;;;;;5053481;28;20025;-68
2021/08/07 13:43:40;;;;;;;1.02;0.60;;;;;;;;;;5053396;28;20029;-68
2021/08/07 13:46:06;;;;;;;0.93;0.60;;;;;;;;;;5053720;28;20025;-68
2021/08/07 13:48:33;;;;;;;2.15;0.80;;;;;;;;;;5053655;28;20063;-68
2021/08/07 13:50:59;;;;;;;1.35;0.65;;;;;;;;;;5053365;28;20453;-68
2021/08/07 13:53:25;;;;;;;1.00;0.60;;;;;;;;;;5053389;28;20048;-67
2021/08/07 13:55:51;;;;;;;1.95;0.95;;;;;;;;;;5052070;28;20029;-68
2021/08/07 13:58:17;;;;;;;3.50;1.10;;;;;;;;;;5053622;28;20476;-68
2021/08/07 14:00:43;;;;;;;1.08;0.77;;;;;;;;;;5053264;28;20029;-67
2021/08/07 14:03:09;;;;;;;1.90;0.80;;;;;;;;;;5053192;28;20036;-68
2021/08/07 14:05:35;;;;;;;2.22;0.80;;;;;;;;;;5053268;28;20104;-68
2021/08/07 14:08:01;;;;;;;3.00;0.70;;;;;;;;;;5053222;28;20033;-68
2021/08/07 14:10:27;;;;;;;1.45;0.60;;;;;;;;;;5053216;28;20017;-68
2021/08/07 14:12:53;;;;;;;4.53;0.90;;;;;;;;;;5051541;28;20029;-68
2021/08/07 14:15:19;;;;;;;1.48;0.90;;;;;;;;;;5052690;28;20491;-67
2021/08/07 14:17:45;;;;;;;1.15;0.70;;;;;;;;;;5052328;28;20379;-67
2021/08/07 14:20:12;;;;;;;2.20;0.85;;;;;;;;;;5053189;28;20031;-68
2021/08/07 14:22:38;;;;;;;1.17;0.68;;;;;;;;;;5053644;28;20124;-67
2021/08/07 14:25:04;;;;;;;1.35;0.70;;;;;;;;;;5053717;28;20024;-68
2021/08/07 14:27:30;;;;;;;2.13;0.90;;;;;;;;;;5053531;28;20040;-68
2021/08/07 14:29:56;;;;;;;1.33;0.80;;;;;;;;;;5052880;28;20017;-68
2021/08/07 14:32:22;;;;;;;1.63;1.00;;;;;;;;;;5052808;28;20064;-68
2021/08/07 14:34:48;;;;;;;1.48;0.80;;;;;;;;;;5052760;28;20024;-67
2021/08/07 14:37:14;;;;;;;1.83;0.77;;;;;;;;;;5052710;28;20050;-68
2021/08/07 14:39:42;;;;;;;2.10;0.80;;;;;;;;;;5052594;28;20025;-68
2021/08/07 14:42:08;;;;;;;1.52;0.80;;;;;;;;;;5051172;28;20033;-68
2021/08/07 14:44:34;;;;;;;1.83;0.77;;;;;;;;;;5052318;28;20480;-68
2021/08/07 14:47:00;;;;;;;1.10;0.68;;;;;;;;;;5051172;28;20086;-68